createdAt,value
2015-07-29T00:00:05.877Z,73575
2015-07-29T00:00:18.252Z,73580
2015-07-29T00:00:30.611Z,73579
2015-07-29T00:00:42.971Z,73579
2015-07-29T00:00:55.346Z,73580
2015-07-29T00:01:07.723Z,73583
2015-07-29T00:01:20.098Z,73582
2015-07-29T00:01:32.457Z,73580
2015-07-29T00:01:44.785Z,73584
2015-07-29T00:01:56.410Z,73580
2015-07-29T00:02:08.756Z,73587
2015-07-29T00:02:21.100Z,73584
2015-07-29T00:02:33.443Z,73588
2015-07-29T00:02:45.772Z,73589
2015-07-29T00:02:58.115Z,73586
2015-07-29T00:03:10.445Z,73589
2015-07-29T00:03:22.789Z,73587
2015-07-29T00:03:35.133Z,73581
2015-07-29T00:03:47.477Z,73578
2015-07-29T00:03:59.805Z,73572
2015-07-29T00:04:12.151Z,73575
2015-07-29T00:04:23.776Z,73570
2015-07-29T00:04:36.104Z,73566
2015-07-29T00:04:48.432Z,73568
2015-07-29T00:05:00.760Z,73563
2015-07-29T00:05:13.106Z,73564
2015-07-29T00:05:25.434Z,73561
2015-07-29T00:05:37.778Z,73558
2015-07-29T00:05:50.137Z,73559
2015-07-29T00:06:02.496Z,73550
2015-07-29T00:06:14.858Z,73544
2015-07-29T00:06:27.217Z,73544
2015-07-29T00:06:39.545Z,73536
2015-07-29T00:06:51.889Z,73534
2015-07-29T00:07:04.233Z,73532
2015-07-29T00:07:16.563Z,73532
2015-07-29T00:07:28.907Z,73533
2015-07-29T00:07:41.235Z,73530
2015-07-29T00:07:53.578Z,73529
2015-07-29T00:08:05.907Z,73530
2015-07-29T00:08:18.251Z,73537
2015-07-29T00:08:30.595Z,73545
2015-07-29T00:08:42.939Z,73553
2015-07-29T00:08:55.267Z,73558
2015-07-29T00:09:07.611Z,73562
2015-07-29T00:09:19.956Z,73564
2015-07-29T00:09:32.285Z,73561
2015-07-29T00:09:44.628Z,73564
2015-07-29T00:09:56.956Z,73559
2015-07-29T00:10:09.597Z,73558
2015-07-29T00:10:21.225Z,73561
2015-07-29T00:10:33.584Z,73560
2015-07-29T00:10:45.944Z,73558
2015-07-29T00:10:58.319Z,73558
2015-07-29T00:11:10.694Z,73559
2015-07-29T00:11:23.070Z,73558
2015-07-29T00:11:35.429Z,73561
2015-07-29T00:11:47.789Z,73562
2015-07-29T00:12:00.164Z,73561
2015-07-29T00:12:11.804Z,73568
2015-07-29T00:12:24.134Z,73564
2015-07-29T00:12:36.478Z,73563
2015-07-29T00:12:48.822Z,73562
2015-07-29T00:13:01.150Z,73559
2015-07-29T00:13:13.494Z,73560
2015-07-29T00:13:25.840Z,73552
2015-07-29T00:13:38.184Z,73555
2015-07-29T00:13:50.512Z,73549
2015-07-29T00:14:02.856Z,73544
2015-07-29T00:14:15.215Z,73548
2015-07-29T00:14:27.389Z,73544
2015-07-29T00:14:39.733Z,73547
2015-07-29T00:14:52.061Z,73552
2015-07-29T00:15:04.405Z,73556
2015-07-29T00:15:16.749Z,73559
2015-07-29T00:15:29.079Z,73562
2015-07-29T00:15:41.438Z,73564
2015-07-29T00:15:53.782Z,73563
2015-07-29T00:16:06.126Z,73563
2015-07-29T00:16:18.469Z,73561
2015-07-29T00:16:30.861Z,73554
2015-07-29T00:16:43.236Z,73555
2015-07-29T00:16:55.595Z,73556
2015-07-29T00:17:07.970Z,73548
2015-07-29T00:17:20.330Z,73551
2015-07-29T00:17:32.707Z,73547
2015-07-29T00:17:45.035Z,73549
2015-07-29T00:17:57.379Z,73553
2015-07-29T00:18:09.707Z,73551
2015-07-29T00:18:22.051Z,73553
2015-07-29T00:18:34.396Z,73559
2015-07-29T00:18:46.740Z,73553
2015-07-29T00:18:59.084Z,73558
2015-07-29T00:19:11.428Z,73557
2015-07-29T00:19:23.771Z,73559
2015-07-29T00:19:36.101Z,73554
2015-07-29T00:19:48.445Z,73554
2015-07-29T00:20:00.773Z,73553
2015-07-29T00:20:13.117Z,73540
2015-07-29T00:20:25.476Z,73541
2015-07-29T00:20:37.838Z,73534
2015-07-29T00:20:50.182Z,73541
2015-07-29T00:21:02.572Z,73533
2015-07-29T00:21:14.932Z,73538
2015-07-29T00:21:27.307Z,73535
2015-07-29T00:21:39.684Z,73544
2015-07-29T00:21:52.059Z,73543
2015-07-29T00:22:04.418Z,73544
2015-07-29T00:22:16.793Z,73545
2015-07-29T00:22:29.137Z,73547
2015-07-29T00:22:41.467Z,73552
2015-07-29T00:22:53.826Z,73547
2015-07-29T00:23:06.170Z,73554
2015-07-29T00:23:18.498Z,73549
2015-07-29T00:23:30.844Z,73555
2015-07-29T00:23:43.172Z,73550
2015-07-29T00:23:55.516Z,73555
2015-07-29T00:24:07.859Z,73553
2015-07-29T00:24:20.203Z,73552
2015-07-29T00:24:32.533Z,73551
2015-07-29T00:24:44.877Z,73551
2015-07-29T00:24:55.799Z,73551
2015-07-29T00:25:08.143Z,73550
2015-07-29T00:25:20.471Z,73550
2015-07-29T00:25:32.817Z,73549
2015-07-29T00:25:45.160Z,73550
2015-07-29T00:25:57.520Z,73551
2015-07-29T00:26:09.863Z,73551
2015-07-29T00:26:22.223Z,73553
2015-07-29T00:26:34.584Z,73553
2015-07-29T00:26:46.975Z,73554
2015-07-29T00:26:59.334Z,73555
2015-07-29T00:27:11.694Z,73552
2015-07-29T00:27:24.069Z,73555
2015-07-29T00:27:35.711Z,73555
2015-07-29T00:27:47.383Z,73555
2015-07-29T00:27:59.742Z,73556
2015-07-29T00:28:11.914Z,73556
2015-07-29T00:28:23.555Z,73555
2015-07-29T00:28:35.885Z,73556
2015-07-29T00:28:48.213Z,73558
2015-07-29T00:29:00.573Z,73559
2015-07-29T00:29:12.901Z,73561
2015-07-29T00:29:25.244Z,73568
2015-07-29T00:29:37.574Z,73572
2015-07-29T00:29:49.933Z,73571
2015-07-29T00:30:02.277Z,73568
2015-07-29T00:30:14.605Z,73568
2015-07-29T00:30:26.949Z,73565
2015-07-29T00:30:39.294Z,73561
2015-07-29T00:30:51.638Z,73562
2015-07-29T00:31:03.966Z,73562
2015-07-29T00:31:16.310Z,73560
2015-07-29T00:31:28.669Z,73564
2015-07-29T00:31:41.016Z,73566
2015-07-29T00:31:53.360Z,73568
2015-07-29T00:32:05.000Z,73568
2015-07-29T00:32:17.375Z,73573
2015-07-29T00:32:29.750Z,73574
2015-07-29T00:32:42.127Z,73577
2015-07-29T00:32:54.487Z,73578
2015-07-29T00:33:06.706Z,73577
2015-07-29T00:33:19.081Z,73576
2015-07-29T00:33:31.424Z,73576
2015-07-29T00:33:43.754Z,73570
2015-07-29T00:33:56.098Z,73567
2015-07-29T00:34:08.442Z,73563
2015-07-29T00:34:20.786Z,73560
2015-07-29T00:34:33.129Z,73559
2015-07-29T00:34:45.460Z,73557
2015-07-29T00:34:58.053Z,73560
2015-07-29T00:35:10.397Z,73560
2015-07-29T00:35:22.741Z,73564
2015-07-29T00:35:35.085Z,73566
2015-07-29T00:35:47.415Z,73567
2015-07-29T00:35:59.758Z,73569
2015-07-29T00:36:12.102Z,73571
2015-07-29T00:36:24.446Z,73570
2015-07-29T00:36:36.790Z,73570
2015-07-29T00:36:49.159Z,73570
2015-07-29T00:37:01.503Z,73569
2015-07-29T00:37:13.847Z,73576
2015-07-29T00:37:26.190Z,73578
2015-07-29T00:37:38.565Z,73570
2015-07-29T00:37:50.823Z,73568
2015-07-29T00:38:03.167Z,73571
2015-07-29T00:38:15.542Z,73572
2015-07-29T00:38:27.901Z,73572
2015-07-29T00:38:40.276Z,73569
2015-07-29T00:38:52.675Z,73559
2015-07-29T00:39:05.003Z,73559
2015-07-29T00:39:17.346Z,73560
2015-07-29T00:39:29.675Z,73563
2015-07-29T00:39:42.018Z,73562
2015-07-29T00:39:54.386Z,73568
2015-07-29T00:40:06.730Z,73571
2015-07-29T00:40:19.058Z,73569
2015-07-29T00:40:31.402Z,73561
2015-07-29T00:40:43.746Z,73560
2015-07-29T00:40:56.129Z,73558
2015-07-29T00:41:08.457Z,73562
2015-07-29T00:41:20.800Z,73563
2015-07-29T00:41:33.160Z,73561
2015-07-29T00:41:45.488Z,73562
2015-07-29T00:41:57.861Z,73566
2015-07-29T00:42:10.189Z,73568
2015-07-29T00:42:22.533Z,73568
2015-07-29T00:42:34.892Z,73570
2015-07-29T00:42:47.236Z,73567
2015-07-29T00:42:59.595Z,73564
2015-07-29T00:43:11.970Z,73569
2015-07-29T00:43:24.345Z,73574
2015-07-29T00:43:36.705Z,73570
2015-07-29T00:43:49.080Z,73571
2015-07-29T00:44:01.454Z,73572
2015-07-29T00:44:13.829Z,73564
2015-07-29T00:44:26.173Z,73562
2015-07-29T00:44:38.501Z,73559
2015-07-29T00:44:50.392Z,73548
2015-07-29T00:45:02.125Z,73547
2015-07-29T00:45:14.000Z,73542
2015-07-29T00:45:26.360Z,73539
2015-07-29T00:45:38.688Z,73542
2015-07-29T00:45:51.032Z,73540
2015-07-29T00:46:03.390Z,73551
2015-07-29T00:46:15.734Z,73554
2015-07-29T00:46:28.078Z,73561
2015-07-29T00:46:40.406Z,73563
2015-07-29T00:46:52.750Z,73563
2015-07-29T00:47:05.106Z,73565
2015-07-29T00:47:17.434Z,73564
2015-07-29T00:47:29.777Z,73554
2015-07-29T00:47:42.121Z,73559
2015-07-29T00:47:54.465Z,73558
2015-07-29T00:48:06.831Z,73557
2015-07-29T00:48:19.175Z,73546
2015-07-29T00:48:30.816Z,73547
2015-07-29T00:48:43.191Z,73548
2015-07-29T00:48:55.566Z,73551
2015-07-29T00:49:07.932Z,73556
2015-07-29T00:49:20.307Z,73559
2015-07-29T00:49:31.979Z,73558
2015-07-29T00:49:44.338Z,73559
2015-07-29T00:49:56.698Z,73555
2015-07-29T00:50:09.047Z,73544
2015-07-29T00:50:21.391Z,73535
2015-07-29T00:50:33.719Z,73530
2015-07-29T00:50:46.047Z,73529
2015-07-29T00:50:58.391Z,73523
2015-07-29T00:51:10.726Z,73540
2015-07-29T00:51:23.054Z,73541
2015-07-29T00:51:35.398Z,73533
2015-07-29T00:51:47.758Z,73527
2015-07-29T00:52:00.086Z,73532
2015-07-29T00:52:12.434Z,73532
2015-07-29T00:52:24.763Z,73532
2015-07-29T00:52:37.106Z,73536
2015-07-29T00:52:49.450Z,73535
2015-07-29T00:53:01.778Z,73534
2015-07-29T00:53:14.109Z,73533
2015-07-29T00:53:26.437Z,73535
2015-07-29T00:53:38.797Z,73528
2015-07-29T00:53:51.172Z,73525
2015-07-29T00:54:03.516Z,73535
2015-07-29T00:54:15.879Z,73535
2015-07-29T00:54:28.238Z,73530
2015-07-29T00:54:40.598Z,73527
2015-07-29T00:54:52.973Z,73532
2015-07-29T00:55:05.332Z,73521
2015-07-29T00:55:17.726Z,73525
2015-07-29T00:55:29.960Z,73534
2015-07-29T00:55:42.304Z,73540
2015-07-29T00:55:54.632Z,73536
2015-07-29T00:56:06.976Z,73524
2015-07-29T00:56:19.323Z,73516
2015-07-29T00:56:31.652Z,73515
2015-07-29T00:56:43.995Z,73523
2015-07-29T00:56:56.339Z,73531
2015-07-29T00:57:08.667Z,73528
2015-07-29T00:57:21.029Z,73533
2015-07-29T00:57:33.357Z,73531
2015-07-29T00:57:45.700Z,73531
2015-07-29T00:57:58.029Z,73539
2015-07-29T00:58:10.220Z,73539
2015-07-29T00:58:22.548Z,73539
2015-07-29T00:58:34.892Z,73537
2015-07-29T00:58:47.220Z,73534
2015-07-29T00:58:59.548Z,73529
2015-07-29T00:59:11.910Z,73525
2015-07-29T00:59:24.253Z,73526
2015-07-29T00:59:36.613Z,73528
2015-07-29T00:59:48.972Z,73525
2015-07-29T01:00:01.331Z,73520
2015-07-29T01:00:13.694Z,73519
2015-07-29T01:00:26.069Z,73520
2015-07-29T01:00:38.428Z,73527
2015-07-29T01:00:50.819Z,73529
2015-07-29T01:01:03.163Z,73536
2015-07-29T01:01:15.508Z,73536
2015-07-29T01:01:27.852Z,73536
2015-07-29T01:01:40.211Z,73538
2015-07-29T01:01:52.540Z,73538
2015-07-29T01:02:04.883Z,73542
2015-07-29T01:02:17.230Z,73544
2015-07-29T01:02:29.574Z,73540
2015-07-29T01:02:41.902Z,73545
2015-07-29T01:02:54.261Z,73541
2015-07-29T01:03:06.605Z,73538
2015-07-29T01:03:18.934Z,73536
2015-07-29T01:03:31.262Z,73530
2015-07-29T01:03:43.606Z,73536
2015-07-29T01:03:55.950Z,73542
2015-07-29T01:04:08.294Z,73540
2015-07-29T01:04:20.625Z,73544
2015-07-29T01:04:32.968Z,73540
2015-07-29T01:04:45.328Z,73542
2015-07-29T01:04:57.672Z,73533
2015-07-29T01:05:10.015Z,73534
2015-07-29T01:05:22.391Z,73536
2015-07-29T01:05:34.751Z,73534
2015-07-29T01:05:47.126Z,73531
2015-07-29T01:05:59.485Z,73532
2015-07-29T01:06:11.860Z,73536
2015-07-29T01:06:24.221Z,73534
2015-07-29T01:06:36.596Z,73530
2015-07-29T01:06:48.987Z,73525
2015-07-29T01:07:01.315Z,73528
2015-07-29T01:07:13.643Z,73525
2015-07-29T01:07:25.989Z,73527
2015-07-29T01:07:38.333Z,73529
2015-07-29T01:07:50.520Z,73536
2015-07-29T01:08:02.848Z,73547
2015-07-29T01:08:15.192Z,73533
2015-07-29T01:08:27.538Z,73527
2015-07-29T01:08:39.882Z,73527
2015-07-29T01:08:52.225Z,73525
2015-07-29T01:09:04.569Z,73527
2015-07-29T01:09:16.913Z,73533
2015-07-29T01:09:29.244Z,73529
2015-07-29T01:09:41.588Z,73526
2015-07-29T01:09:53.932Z,73528
2015-07-29T01:10:06.275Z,73529
2015-07-29T01:10:18.603Z,73531
2015-07-29T01:10:30.964Z,73528
2015-07-29T01:10:42.620Z,73529
2015-07-29T01:10:54.964Z,73521
2015-07-29T01:11:07.386Z,73525
2015-07-29T01:11:19.761Z,73529
2015-07-29T01:11:32.122Z,73526
2015-07-29T01:11:44.481Z,73531
2015-07-29T01:11:56.856Z,73532
2015-07-29T01:12:08.497Z,73531
2015-07-29T01:12:20.872Z,73535
2015-07-29T01:12:33.250Z,73535
2015-07-29T01:12:45.594Z,73535
2015-07-29T01:12:57.938Z,73534
2015-07-29T01:13:10.266Z,73533
2015-07-29T01:13:22.609Z,73533
2015-07-29T01:13:34.954Z,73535
2015-07-29T01:13:47.282Z,73535
2015-07-29T01:13:59.626Z,73532
2015-07-29T01:14:11.970Z,73526
2015-07-29T01:14:24.314Z,73525
2015-07-29T01:14:36.659Z,73525
2015-07-29T01:14:49.003Z,73521
2015-07-29T01:15:01.331Z,73521
2015-07-29T01:15:13.675Z,73522
2015-07-29T01:15:26.003Z,73524
2015-07-29T01:15:38.349Z,73521
2015-07-29T01:15:50.677Z,73525
2015-07-29T01:16:03.036Z,73528
2015-07-29T01:16:15.380Z,73528
2015-07-29T01:16:27.724Z,73530
2015-07-29T01:16:40.085Z,73528
2015-07-29T01:16:52.445Z,73529
2015-07-29T01:17:04.820Z,73531
2015-07-29T01:17:17.179Z,73534
2015-07-29T01:17:29.554Z,73536
2015-07-29T01:17:41.931Z,73536
2015-07-29T01:17:54.290Z,73538
2015-07-29T01:18:06.650Z,73537
2015-07-29T01:18:18.978Z,73533
2015-07-29T01:18:31.322Z,73535
2015-07-29T01:18:43.652Z,73536
2015-07-29T01:18:55.995Z,73539
2015-07-29T01:19:08.339Z,73537
2015-07-29T01:19:20.667Z,73537
2015-07-29T01:19:33.011Z,73538
2015-07-29T01:19:45.201Z,73538
2015-07-29T01:19:57.529Z,73537
2015-07-29T01:20:09.716Z,73541
2015-07-29T01:20:22.060Z,73540
2015-07-29T01:20:34.406Z,73543
2015-07-29T01:20:46.734Z,73543
2015-07-29T01:20:58.921Z,73542
2015-07-29T01:21:11.249Z,73542
2015-07-29T01:21:23.593Z,73536
2015-07-29T01:21:35.939Z,73536
2015-07-29T01:21:48.283Z,73537
2015-07-29T01:22:00.642Z,73536
2015-07-29T01:22:12.986Z,73537
2015-07-29T01:22:25.345Z,73538
2015-07-29T01:22:37.597Z,73539
2015-07-29T01:22:49.957Z,73536
2015-07-29T01:23:02.300Z,73541
2015-07-29T01:23:14.644Z,73543
2015-07-29T01:23:26.972Z,73543
2015-07-29T01:23:39.318Z,73545
2015-07-29T01:23:51.646Z,73543
2015-07-29T01:24:04.005Z,73541
2015-07-29T01:24:16.334Z,73537
2015-07-29T01:24:28.677Z,73536
2015-07-29T01:24:41.023Z,73532
2015-07-29T01:24:53.367Z,73530
2015-07-29T01:25:05.711Z,73528
2015-07-29T01:25:18.039Z,73532
2015-07-29T01:25:29.664Z,73534
2015-07-29T01:25:42.025Z,73533
2015-07-29T01:25:54.369Z,73536
2015-07-29T01:26:06.556Z,73535
2015-07-29T01:26:18.900Z,73536
2015-07-29T01:26:31.244Z,73535
2015-07-29T01:26:43.590Z,73534
2015-07-29T01:26:55.949Z,73541
2015-07-29T01:27:08.293Z,73540
2015-07-29T01:27:20.683Z,73541
2015-07-29T01:27:33.043Z,73542
2015-07-29T01:27:45.419Z,73544
2015-07-29T01:27:57.778Z,73538
2015-07-29T01:28:10.153Z,73539
2015-07-29T01:28:22.528Z,73542
2015-07-29T01:28:34.872Z,73540
2015-07-29T01:28:47.219Z,73543
2015-07-29T01:28:59.812Z,73548
2015-07-29T01:29:12.156Z,73548
2015-07-29T01:29:24.484Z,73545
2015-07-29T01:29:36.828Z,73544
2015-07-29T01:29:49.157Z,73539
2015-07-29T01:30:01.501Z,73542
2015-07-29T01:30:14.095Z,73546
2015-07-29T01:30:25.720Z,73545
2015-07-29T01:30:38.048Z,73548
2015-07-29T01:30:50.394Z,73547
2015-07-29T01:31:02.723Z,73546
2015-07-29T01:31:15.082Z,73549
2015-07-29T01:31:27.410Z,73552
2015-07-29T01:31:39.754Z,73553
2015-07-29T01:31:52.083Z,73547
2015-07-29T01:32:04.442Z,73548
2015-07-29T01:32:16.786Z,73547
2015-07-29T01:32:29.130Z,73548
2015-07-29T01:32:41.474Z,73544
2015-07-29T01:32:53.866Z,73546
2015-07-29T01:33:06.226Z,73547
2015-07-29T01:33:18.585Z,73552
2015-07-29T01:33:30.960Z,73553
2015-07-29T01:33:43.319Z,73553
2015-07-29T01:33:55.682Z,73553
2015-07-29T01:34:08.072Z,73548
2015-07-29T01:34:20.416Z,73548
2015-07-29T01:34:32.744Z,73549
2015-07-29T01:34:45.088Z,73549
2015-07-29T01:34:57.418Z,73552
2015-07-29T01:35:09.762Z,73553
2015-07-29T01:35:22.090Z,73546
2015-07-29T01:35:34.434Z,73545
2015-07-29T01:35:46.777Z,73548
2015-07-29T01:35:59.107Z,73550
2015-07-29T01:36:11.466Z,73551
2015-07-29T01:36:23.091Z,73558
2015-07-29T01:36:35.435Z,73553
2015-07-29T01:36:47.763Z,73554
2015-07-29T01:37:00.109Z,73549
2015-07-29T01:37:12.280Z,73545
2015-07-29T01:37:24.624Z,73543
2015-07-29T01:37:36.952Z,73537
2015-07-29T01:37:49.296Z,73535
2015-07-29T01:38:01.657Z,73531
2015-07-29T01:38:14.001Z,73531
2015-07-29T01:38:26.189Z,73542
2015-07-29T01:38:38.579Z,73540
2015-07-29T01:38:50.939Z,73542
2015-07-29T01:39:03.300Z,73540
2015-07-29T01:39:15.659Z,73534
2015-07-29T01:39:28.066Z,73520
2015-07-29T01:39:40.425Z,73525
2015-07-29T01:39:52.784Z,73527
2015-07-29T01:40:04.411Z,73536
2015-07-29T01:40:16.740Z,73535
2015-07-29T01:40:29.068Z,73538
2015-07-29T01:40:41.443Z,73538
2015-07-29T01:40:53.771Z,73541
2015-07-29T01:41:06.117Z,73542
2015-07-29T01:41:18.460Z,73540
2015-07-29T01:41:30.788Z,73546
2015-07-29T01:41:43.132Z,73543
2015-07-29T01:41:55.476Z,73532
2015-07-29T01:42:07.806Z,73529
2015-07-29T01:42:20.150Z,73533
2015-07-29T01:42:32.494Z,73536
2015-07-29T01:42:44.822Z,73537
2015-07-29T01:42:57.165Z,73537
2015-07-29T01:43:09.496Z,73538
2015-07-29T01:43:21.839Z,73537
2015-07-29T01:43:34.183Z,73535
2015-07-29T01:43:46.527Z,73535
2015-07-29T01:43:58.871Z,73538
2015-07-29T01:44:11.248Z,73539
2015-07-29T01:44:23.623Z,73540
2015-07-29T01:44:35.982Z,73539
2015-07-29T01:44:48.216Z,73535
2015-07-29T01:45:00.591Z,73531
2015-07-29T01:45:12.953Z,73535
2015-07-29T01:45:25.328Z,73531
2015-07-29T01:45:37.671Z,73529
2015-07-29T01:45:50.000Z,73524
2015-07-29T01:46:02.328Z,73526
2015-07-29T01:46:14.673Z,73531
2015-07-29T01:46:27.017Z,73534
2015-07-29T01:46:39.361Z,73524
2015-07-29T01:46:51.689Z,73521
2015-07-29T01:47:04.033Z,73519
2015-07-29T01:47:16.379Z,73518
2015-07-29T01:47:28.722Z,73523
2015-07-29T01:47:41.066Z,73530
2015-07-29T01:47:53.394Z,73528
2015-07-29T01:48:05.754Z,73528
2015-07-29T01:48:18.099Z,73519
2015-07-29T01:48:30.427Z,73524
2015-07-29T01:48:42.771Z,73524
2015-07-29T01:48:55.381Z,73529
2015-07-29T01:49:07.584Z,73531
2015-07-29T01:49:19.929Z,73532
2015-07-29T01:49:32.273Z,73532
2015-07-29T01:49:44.648Z,73533
2015-07-29T01:49:56.304Z,73531
2015-07-29T01:50:08.679Z,73530
2015-07-29T01:50:21.041Z,73528
2015-07-29T01:50:33.400Z,73529
2015-07-29T01:50:45.791Z,73531
2015-07-29T01:50:58.150Z,73526
2015-07-29T01:51:10.494Z,73524
2015-07-29T01:51:22.824Z,73521
2015-07-29T01:51:35.168Z,73526
2015-07-29T01:51:47.512Z,73526
2015-07-29T01:51:59.840Z,73522
2015-07-29T01:52:12.183Z,73533
2015-07-29T01:52:24.529Z,73535
2015-07-29T01:52:36.873Z,73544
2015-07-29T01:52:49.217Z,73547
2015-07-29T01:53:01.576Z,73543
2015-07-29T01:53:13.904Z,73541
2015-07-29T01:53:25.547Z,73542
2015-07-29T01:53:37.875Z,73538
2015-07-29T01:53:50.219Z,73536
2015-07-29T01:54:02.547Z,73539
2015-07-29T01:54:14.891Z,73539
2015-07-29T01:54:27.221Z,73537
2015-07-29T01:54:39.580Z,73531
2015-07-29T01:54:51.924Z,73532
2015-07-29T01:55:04.268Z,73529
2015-07-29T01:55:16.627Z,73530
2015-07-29T01:55:28.987Z,73537
2015-07-29T01:55:41.347Z,73535
2015-07-29T01:55:53.722Z,73532
2015-07-29T01:56:06.097Z,73529
2015-07-29T01:56:18.472Z,73526
2015-07-29T01:56:30.850Z,73515
2015-07-29T01:56:43.225Z,73509
2015-07-29T01:56:55.568Z,73514
2015-07-29T01:57:07.897Z,73518
2015-07-29T01:57:20.272Z,73522
2015-07-29T01:57:32.602Z,73525
2015-07-29T01:57:44.945Z,73527
2015-07-29T01:57:57.289Z,73525
2015-07-29T01:58:09.633Z,73527
2015-07-29T01:58:21.961Z,73528
2015-07-29T01:58:34.306Z,73522
2015-07-29T01:58:45.931Z,73521
2015-07-29T01:58:58.275Z,73521
2015-07-29T01:59:10.603Z,73523
2015-07-29T01:59:22.946Z,73528
2015-07-29T01:59:35.293Z,73527
2015-07-29T01:59:47.621Z,73513
2015-07-29T01:59:59.949Z,73520
2015-07-29T02:00:12.293Z,73522
2015-07-29T02:00:24.621Z,73526
2015-07-29T02:00:36.966Z,73531
2015-07-29T02:00:49.325Z,73530
2015-07-29T02:01:01.669Z,73531
2015-07-29T02:01:14.044Z,73530
2015-07-29T02:01:26.419Z,73531
2015-07-29T02:01:38.796Z,73538
2015-07-29T02:01:51.156Z,73536
2015-07-29T02:02:03.515Z,73537
2015-07-29T02:02:15.890Z,73535
2015-07-29T02:02:28.265Z,73535
2015-07-29T02:02:40.612Z,73531
2015-07-29T02:02:52.955Z,73534
2015-07-29T02:03:05.284Z,73529
2015-07-29T02:03:17.612Z,73524
2015-07-29T02:03:29.955Z,73528
2015-07-29T02:03:42.300Z,73532
2015-07-29T02:03:54.628Z,73538
2015-07-29T02:04:06.972Z,73534
2015-07-29T02:04:19.316Z,73531
2015-07-29T02:04:31.660Z,73535
2015-07-29T02:04:43.990Z,73536
2015-07-29T02:04:56.333Z,73537
2015-07-29T02:05:08.662Z,73537
2015-07-29T02:05:21.021Z,73533
2015-07-29T02:05:33.349Z,73531
2015-07-29T02:05:45.679Z,73532
2015-07-29T02:05:58.023Z,73533
2015-07-29T02:06:10.367Z,73541
2015-07-29T02:06:22.710Z,73543
2015-07-29T02:06:35.054Z,73538
2015-07-29T02:06:47.416Z,73538
2015-07-29T02:06:59.791Z,73537
2015-07-29T02:07:12.150Z,73535
2015-07-29T02:07:24.509Z,73540
2015-07-29T02:07:36.871Z,73536
2015-07-29T02:07:49.261Z,73542
2015-07-29T02:08:01.621Z,73545
2015-07-29T02:08:13.980Z,73545
2015-07-29T02:08:26.339Z,73534
2015-07-29T02:08:38.670Z,73533
2015-07-29T02:08:51.013Z,73529
2015-07-29T02:09:03.341Z,73531
2015-07-29T02:09:15.685Z,73530
2015-07-29T02:09:28.013Z,73530
2015-07-29T02:09:40.343Z,73536
2015-07-29T02:09:52.687Z,73539
2015-07-29T02:10:05.031Z,73536
2015-07-29T02:10:17.359Z,73531
2015-07-29T02:10:29.703Z,73534
2015-07-29T02:10:42.049Z,73530
2015-07-29T02:10:54.377Z,73533
2015-07-29T02:11:06.736Z,73535
2015-07-29T02:11:19.064Z,73534
2015-07-29T02:11:31.408Z,73527
2015-07-29T02:11:43.754Z,73527
2015-07-29T02:11:56.082Z,73531
2015-07-29T02:12:08.426Z,73535
2015-07-29T02:12:20.769Z,73534
2015-07-29T02:12:33.129Z,73527
2015-07-29T02:12:45.506Z,73527
2015-07-29T02:12:57.881Z,73533
2015-07-29T02:13:10.256Z,73530
2015-07-29T02:13:22.631Z,73528
2015-07-29T02:13:34.990Z,73530
2015-07-29T02:13:47.367Z,73517
2015-07-29T02:13:59.726Z,73517
2015-07-29T02:14:12.070Z,73526
2015-07-29T02:14:24.398Z,73536
2015-07-29T02:14:36.742Z,73531
2015-07-29T02:14:49.071Z,73531
2015-07-29T02:15:01.415Z,73534
2015-07-29T02:15:13.743Z,73533
2015-07-29T02:15:26.071Z,73539
2015-07-29T02:15:38.415Z,73541
2015-07-29T02:15:50.762Z,73547
2015-07-29T02:16:03.105Z,73545
2015-07-29T02:16:15.434Z,73547
2015-07-29T02:16:27.793Z,73554
2015-07-29T02:16:40.121Z,73556
2015-07-29T02:16:52.467Z,73556
2015-07-29T02:17:04.811Z,73548
2015-07-29T02:17:17.139Z,73544
2015-07-29T02:17:29.482Z,73543
2015-07-29T02:17:41.826Z,73539
2015-07-29T02:17:54.187Z,73545
2015-07-29T02:18:06.546Z,73545
2015-07-29T02:18:18.890Z,73545
2015-07-29T02:18:31.265Z,73543
2015-07-29T02:18:43.640Z,73547
2015-07-29T02:18:56.018Z,73549
2015-07-29T02:19:08.393Z,73556
2015-07-29T02:19:20.768Z,73554
2015-07-29T02:19:33.143Z,73550
2015-07-29T02:19:45.502Z,73538
2015-07-29T02:19:57.847Z,73530
2015-07-29T02:20:10.175Z,73533
2015-07-29T02:20:22.503Z,73538
2015-07-29T02:20:34.847Z,73543
2015-07-29T02:20:47.206Z,73544
2015-07-29T02:20:59.537Z,73539
2015-07-29T02:21:11.881Z,73544
2015-07-29T02:21:24.209Z,73549
2015-07-29T02:21:36.553Z,73540
2015-07-29T02:21:48.881Z,73535
2015-07-29T02:22:01.071Z,73538
2015-07-29T02:22:13.399Z,73546
2015-07-29T02:22:25.758Z,73547
2015-07-29T02:22:38.086Z,73547
2015-07-29T02:22:50.430Z,73540
2015-07-29T02:23:02.759Z,73535
2015-07-29T02:23:15.103Z,73536
2015-07-29T02:23:27.447Z,73534
2015-07-29T02:23:39.806Z,73541
2015-07-29T02:23:52.150Z,73541
2015-07-29T02:24:04.528Z,73541
2015-07-29T02:24:16.887Z,73553
2015-07-29T02:24:29.246Z,73548
2015-07-29T02:24:41.606Z,73536
2015-07-29T02:24:53.966Z,73523
2015-07-29T02:25:06.341Z,73533
2015-07-29T02:25:18.716Z,73538
2015-07-29T02:25:31.060Z,73540
2015-07-29T02:25:43.404Z,73540
2015-07-29T02:25:55.734Z,73541
2015-07-29T02:26:08.078Z,73542
2015-07-29T02:26:20.406Z,73543
2015-07-29T02:26:32.749Z,73543
2015-07-29T02:26:45.093Z,73545
2015-07-29T02:26:57.423Z,73547
2015-07-29T02:27:09.064Z,73546
2015-07-29T02:27:21.392Z,73548
2015-07-29T02:27:33.736Z,73556
2015-07-29T02:27:46.080Z,73555
2015-07-29T02:27:58.411Z,73549
2015-07-29T02:28:10.770Z,73556
2015-07-29T02:28:23.098Z,73547
2015-07-29T02:28:35.442Z,73541
2015-07-29T02:28:47.770Z,73540
2015-07-29T02:29:00.115Z,73545
2015-07-29T02:29:12.474Z,73547
2015-07-29T02:29:24.818Z,73537
2015-07-29T02:29:37.162Z,73530
2015-07-29T02:29:49.537Z,73531
2015-07-29T02:30:01.898Z,73540
2015-07-29T02:30:14.273Z,73536
2015-07-29T02:30:26.632Z,73536
2015-07-29T02:30:38.992Z,73537
2015-07-29T02:30:51.367Z,73529
2015-07-29T02:31:03.728Z,73518
2015-07-29T02:31:16.056Z,73520
2015-07-29T02:31:28.400Z,73525
2015-07-29T02:31:40.744Z,73533
2015-07-29T02:31:53.072Z,73525
2015-07-29T02:32:05.402Z,73518
2015-07-29T02:32:17.746Z,73514
2015-07-29T02:32:30.074Z,73516
2015-07-29T02:32:42.402Z,73528
2015-07-29T02:32:54.996Z,73538
2015-07-29T02:33:07.357Z,73533
2015-07-29T02:33:19.685Z,73533
2015-07-29T02:33:31.310Z,73538
2015-07-29T02:33:43.654Z,73542
2015-07-29T02:33:55.842Z,73543
2015-07-29T02:34:08.172Z,73534
2015-07-29T02:34:20.515Z,73530
2015-07-29T02:34:32.844Z,73527
2015-07-29T02:34:45.187Z,73525
2015-07-29T02:34:57.531Z,73523
2015-07-29T02:35:09.892Z,73526
2015-07-29T02:35:22.236Z,73526
2015-07-29T02:35:34.596Z,73529
2015-07-29T02:35:46.955Z,73525
2015-07-29T02:35:59.330Z,73534
2015-07-29T02:36:11.691Z,73538
2015-07-29T02:36:24.066Z,73534
2015-07-29T02:36:36.441Z,73538
2015-07-29T02:36:48.801Z,73540
2015-07-29T02:37:01.144Z,73538
2015-07-29T02:37:13.475Z,73541
2015-07-29T02:37:25.803Z,73546
2015-07-29T02:37:38.146Z,73535
2015-07-29T02:37:50.475Z,73534
2015-07-29T02:38:02.818Z,73524
2015-07-29T02:38:15.195Z,73518
2015-07-29T02:38:27.523Z,73518
2015-07-29T02:38:39.883Z,73520